sensor_id;sensor_type;location;lat;lon;timestamp;P1;durP1;ratioP1;P2;durP2;ratioP2
33830;SDS011;20137;48.834;8.732;2023-02-28T00:01:06;6.30;;;2.70;;
33830;SDS011;20137;48.834;8.732;2023-02-28T00:03:32;4.43;;;2.78;;
33830;SDS011;20137;48.834;8.732;2023-02-28T00:06:01;6.60;;;3.00;;
33830;SDS011;20137;48.834;8.732;2023-02-28T00:08:27;4.95;;;2.72;;
33830;SDS011;20137;48.834;8.732;2023-02-28T00:10:53;4.38;;;2.50;;
33830;SDS011;20137;48.834;8.732;2023-02-28T00:13:19;6.38;;;2.53;;
33830;SDS011;20137;48.834;8.732;2023-02-28T00:15:45;5.38;;;2.58;;
33830;SDS011;20137;48.834;8.732;2023-02-28T00:18:10;3.72;;;2.50;;
33830;SDS011;20137;48.834;8.732;2023-02-28T00:20:36;7.97;;;2.63;;
33830;SDS011;20137;48.834;8.732;2023-02-28T00:23:02;8.13;;;3.20;;
33830;SDS011;20137;48.834;8.732;2023-02-28T00:25:28;8.45;;;3.50;;
33830;SDS011;20137;48.834;8.732;2023-02-28T00:27:53;6.95;;;3.33;;
33830;SDS011;20137;48.834;8.732;2023-02-28T00:30:20;6.05;;;3.78;;
33830;SDS011;20137;48.834;8.732;2023-02-28T00:32:47;7.05;;;3.92;;
33830;SDS011;20137;48.834;8.732;2023-02-28T00:35:13;8.35;;;3.40;;
33830;SDS011;20137;48.834;8.732;2023-02-28T00:37:39;9.35;;;3.80;;
33830;SDS011;20137;48.834;8.732;2023-02-28T00:40:06;5.57;;;3.30;;
33830;SDS011;20137;48.834;8.732;2023-02-28T00:42:35;6.07;;;3.45;;
33830;SDS011;20137;48.834;8.732;2023-02-28T00:45:02;7.15;;;3.78;;
33830;SDS011;20137;48.834;8.732;2023-02-28T00:47:32;6.70;;;3.45;;
33830;SDS011;20137;48.834;8.732;2023-02-28T00:49:58;8.23;;;4.15;;
33830;SDS011;20137;48.834;8.732;2023-02-28T00:52:24;6.47;;;3.80;;
33830;SDS011;20137;48.834;8.732;2023-02-28T00:54:50;10.00;;;4.60;;
33830;SDS011;20137;48.834;8.732;2023-02-28T00:57:15;6.07;;;3.70;;
33830;SDS011;20137;48.834;8.732;2023-02-28T00:59:41;7.85;;;4.25;;
33830;SDS011;20137;48.834;8.732;2023-02-28T01:02:06;9.15;;;4.30;;
33830;SDS011;20137;48.834;8.732;2023-02-28T01:04:32;7.43;;;4.13;;
33830;SDS011;20137;48.834;8.732;2023-02-28T01:06:58;8.88;;;3.85;;
33830;SDS011;20137;48.834;8.732;2023-02-28T01:09:23;7.70;;;4.38;;
33830;SDS011;20137;48.834;8.732;2023-02-28T01:11:49;9.27;;;4.47;;
33830;SDS011;20137;48.834;8.732;2023-02-28T01:14:15;6.78;;;3.75;;
33830;SDS011;20137;48.834;8.732;2023-02-28T01:16:42;8.70;;;4.05;;
33830;SDS011;20137;48.834;8.732;2023-02-28T01:19:08;11.95;;;5.07;;
33830;SDS011;20137;48.834;8.732;2023-02-28T01:21:34;11.18;;;4.57;;
33830;SDS011;20137;48.834;8.732;2023-02-28T01:24:03;8.68;;;4.78;;
33830;SDS011;20137;48.834;8.732;2023-02-28T01:26:29;7.18;;;4.47;;
33830;SDS011;20137;48.834;8.732;2023-02-28T01:28:58;10.20;;;4.80;;
33830;SDS011;20137;48.834;8.732;2023-02-28T01:31:24;10.68;;;5.07;;
33830;SDS011;20137;48.834;8.732;2023-02-28T01:33:50;9.75;;;4.53;;
33830;SDS011;20137;48.834;8.732;2023-02-28T01:36:17;8.27;;;5.13;;
33830;SDS011;20137;48.834;8.732;2023-02-28T01:38:44;11.82;;;5.45;;
33830;SDS011;20137;48.834;8.732;2023-02-28T01:41:18;6.82;;;4.43;;
33830;SDS011;20137;48.834;8.732;2023-02-28T01:46:12;11.98;;;5.75;;
33830;SDS011;20137;48.834;8.732;2023-02-28T01:48:38;10.68;;;5.45;;
33830;SDS011;20137;48.834;8.732;2023-02-28T01:51:10;8.82;;;4.70;;
33830;SDS011;20137;48.834;8.732;2023-02-28T01:53:47;12.52;;;5.78;;
33830;SDS011;20137;48.834;8.732;2023-02-28T01:56:19;10.77;;;5.88;;
33830;SDS011;20137;48.834;8.732;2023-02-28T01:58:48;11.00;;;6.07;;
33830;SDS011;20137;48.834;8.732;2023-02-28T02:01:18;9.85;;;5.70;;
33830;SDS011;20137;48.834;8.732;2023-02-28T02:03:52;10.13;;;5.97;;
33830;SDS011;20137;48.834;8.732;2023-02-28T02:06:22;10.63;;;5.50;;
33830;SDS011;20137;48.834;8.732;2023-02-28T02:08:49;10.50;;;6.03;;
33830;SDS011;20137;48.834;8.732;2023-02-28T02:11:17;8.98;;;5.32;;
33830;SDS011;20137;48.834;8.732;2023-02-28T02:19:08;10.43;;;5.03;;
33830;SDS011;20137;48.834;8.732;2023-02-28T02:25:21;12.35;;;5.97;;
33830;SDS011;20137;48.834;8.732;2023-02-28T02:31:06;9.77;;;6.20;;
33830;SDS011;20137;48.834;8.732;2023-02-28T02:33:58;8.55;;;5.95;;
33830;SDS011;20137;48.834;8.732;2023-02-28T02:36:41;13.10;;;5.63;;
33830;SDS011;20137;48.834;8.732;2023-02-28T02:41:46;8.43;;;5.72;;
33830;SDS011;20137;48.834;8.732;2023-02-28T02:44:31;10.25;;;5.65;;
33830;SDS011;20137;48.834;8.732;2023-02-28T02:47:01;11.00;;;6.10;;
33830;SDS011;20137;48.834;8.732;2023-02-28T02:49:32;10.18;;;6.10;;
33830;SDS011;20137;48.834;8.732;2023-02-28T02:52:02;11.20;;;6.70;;
33830;SDS011;20137;48.834;8.732;2023-02-28T02:54:40;10.65;;;6.53;;
33830;SDS011;20137;48.834;8.732;2023-02-28T02:57:10;15.38;;;6.88;;
33830;SDS011;20137;48.834;8.732;2023-02-28T02:59:42;11.55;;;7.13;;
33830;SDS011;20137;48.834;8.732;2023-02-28T03:02:11;12.55;;;6.68;;
33830;SDS011;20137;48.834;8.732;2023-02-28T03:04:42;11.75;;;6.43;;
33830;SDS011;20137;48.834;8.732;2023-02-28T03:07:12;13.55;;;6.78;;
33830;SDS011;20137;48.834;8.732;2023-02-28T03:09:38;11.85;;;6.82;;
33830;SDS011;20137;48.834;8.732;2023-02-28T03:12:03;13.27;;;6.70;;
33830;SDS011;20137;48.834;8.732;2023-02-28T03:14:41;12.02;;;6.47;;
33830;SDS011;20137;48.834;8.732;2023-02-28T03:30:19;11.85;;;7.70;;
33830;SDS011;20137;48.834;8.732;2023-02-28T03:33:08;12.82;;;7.90;;
33830;SDS011;20137;48.834;8.732;2023-02-28T03:35:51;12.18;;;7.43;;
33830;SDS011;20137;48.834;8.732;2023-02-28T03:41:04;12.05;;;6.53;;
33830;SDS011;20137;48.834;8.732;2023-02-28T03:43:43;10.60;;;7.43;;
33830;SDS011;20137;48.834;8.732;2023-02-28T03:46:14;13.57;;;7.10;;
33830;SDS011;20137;48.834;8.732;2023-02-28T03:48:45;15.20;;;7.88;;
33830;SDS011;20137;48.834;8.732;2023-02-28T03:51:16;17.67;;;8.02;;
33830;SDS011;20137;48.834;8.732;2023-02-28T03:53:50;12.77;;;8.30;;
33830;SDS011;20137;48.834;8.732;2023-02-28T03:56:19;14.10;;;7.63;;
33830;SDS011;20137;48.834;8.732;2023-02-28T03:58:53;14.10;;;8.30;;
33830;SDS011;20137;48.834;8.732;2023-02-28T04:01:28;15.32;;;7.90;;
33830;SDS011;20137;48.834;8.732;2023-02-28T04:04:00;15.27;;;7.55;;
33830;SDS011;20137;48.834;8.732;2023-02-28T04:06:27;12.48;;;7.70;;
33830;SDS011;20137;48.834;8.732;2023-02-28T04:08:55;14.93;;;8.60;;
33830;SDS011;20137;48.834;8.732;2023-02-28T04:11:40;15.32;;;8.68;;
33830;SDS011;20137;48.834;8.732;2023-02-28T04:14:12;18.30;;;7.45;;
33830;SDS011;20137;48.834;8.732;2023-02-28T04:16:39;15.98;;;8.85;;
33830;SDS011;20137;48.834;8.732;2023-02-28T04:19:06;17.65;;;8.80;;
33830;SDS011;20137;48.834;8.732;2023-02-28T04:21:34;14.38;;;8.05;;
33830;SDS011;20137;48.834;8.732;2023-02-28T04:24:03;12.95;;;8.57;;
33830;SDS011;20137;48.834;8.732;2023-02-28T04:26:29;15.45;;;9.15;;
33830;SDS011;20137;48.834;8.732;2023-02-28T04:28:56;17.95;;;8.13;;
33830;SDS011;20137;48.834;8.732;2023-02-28T04:31:22;14.18;;;8.75;;
33830;SDS011;20137;48.834;8.732;2023-02-28T04:33:47;15.52;;;7.78;;
33830;SDS011;20137;48.834;8.732;2023-02-28T04:36:13;18.52;;;8.65;;
33830;SDS011;20137;48.834;8.732;2023-02-28T04:38:39;15.10;;;9.32;;
33830;SDS011;20137;48.834;8.732;2023-02-28T04:41:05;19.75;;;9.68;;
33830;SDS011;20137;48.834;8.732;2023-02-28T04:43:31;19.50;;;8.73;;
33830;SDS011;20137;48.834;8.732;2023-02-28T04:45:58;16.10;;;9.27;;
33830;SDS011;20137;48.834;8.732;2023-02-28T04:48:27;19.75;;;9.20;;
33830;SDS011;20137;48.834;8.732;2023-02-28T04:50:54;16.88;;;9.82;;
33830;SDS011;20137;48.834;8.732;2023-02-28T04:53:20;15.23;;;9.65;;
33830;SDS011;20137;48.834;8.732;2023-02-28T04:55:46;17.35;;;11.10;;
33830;SDS011;20137;48.834;8.732;2023-02-28T04:58:13;18.45;;;9.27;;
33830;SDS011;20137;48.834;8.732;2023-02-28T05:00:39;17.35;;;9.27;;
33830;SDS011;20137;48.834;8.732;2023-02-28T05:03:05;15.20;;;9.48;;
33830;SDS011;20137;48.834;8.732;2023-02-28T05:05:31;20.30;;;10.35;;
33830;SDS011;20137;48.834;8.732;2023-02-28T05:07:56;15.43;;;9.57;;
33830;SDS011;20137;48.834;8.732;2023-02-28T05:10:22;18.77;;;9.65;;
33830;SDS011;20137;48.834;8.732;2023-02-28T05:12:48;16.67;;;9.57;;
33830;SDS011;20137;48.834;8.732;2023-02-28T05:15:14;16.42;;;9.73;;
33830;SDS011;20137;48.834;8.732;2023-02-28T05:17:41;18.42;;;9.07;;
33830;SDS011;20137;48.834;8.732;2023-02-28T05:20:07;17.20;;;9.98;;
33830;SDS011;20137;48.834;8.732;2023-02-28T05:22:35;18.08;;;10.18;;
33830;SDS011;20137;48.834;8.732;2023-02-28T05:25:02;19.63;;;9.18;;
33830;SDS011;20137;48.834;8.732;2023-02-28T05:27:29;17.88;;;9.82;;
33830;SDS011;20137;48.834;8.732;2023-02-28T05:29:55;16.70;;;9.65;;
33830;SDS011;20137;48.834;8.732;2023-02-28T05:32:21;18.25;;;10.00;;
33830;SDS011;20137;48.834;8.732;2023-02-28T05:34:47;17.98;;;10.32;;
33830;SDS011;20137;48.834;8.732;2023-02-28T05:37:13;15.50;;;8.90;;
33830;SDS011;20137;48.834;8.732;2023-02-28T05:39:40;17.58;;;9.60;;
33830;SDS011;20137;48.834;8.732;2023-02-28T05:42:06;18.77;;;10.68;;
33830;SDS011;20137;48.834;8.732;2023-02-28T05:44:32;18.20;;;10.52;;
33830;SDS011;20137;48.834;8.732;2023-02-28T05:46:58;19.45;;;10.75;;
33830;SDS011;20137;48.834;8.732;2023-02-28T05:49:24;18.02;;;9.90;;
33830;SDS011;20137;48.834;8.732;2023-02-28T05:51:50;17.17;;;10.05;;
33830;SDS011;20137;48.834;8.732;2023-02-28T05:54:15;16.70;;;10.85;;
33830;SDS011;20137;48.834;8.732;2023-02-28T05:56:41;17.02;;;10.15;;
33830;SDS011;20137;48.834;8.732;2023-02-28T05:59:10;17.67;;;10.18;;
33830;SDS011;20137;48.834;8.732;2023-02-28T06:01:42;19.13;;;10.57;;
33830;SDS011;20137;48.834;8.732;2023-02-28T06:04:17;24.02;;;10.82;;
33830;SDS011;20137;48.834;8.732;2023-02-28T06:06:47;17.55;;;9.70;;
33830;SDS011;20137;48.834;8.732;2023-02-28T06:09:14;19.30;;;10.68;;
33830;SDS011;20137;48.834;8.732;2023-02-28T06:11:41;20.58;;;10.65;;
33830;SDS011;20137;48.834;8.732;2023-02-28T06:14:07;20.58;;;10.48;;
33830;SDS011;20137;48.834;8.732;2023-02-28T06:16:37;19.02;;;10.20;;
33830;SDS011;20137;48.834;8.732;2023-02-28T06:19:03;15.90;;;9.65;;
33830;SDS011;20137;48.834;8.732;2023-02-28T06:21:29;19.88;;;9.45;;
33830;SDS011;20137;48.834;8.732;2023-02-28T06:23:56;21.83;;;10.00;;
33830;SDS011;20137;48.834;8.732;2023-02-28T06:26:22;20.60;;;10.10;;
33830;SDS011;20137;48.834;8.732;2023-02-28T06:28:48;18.17;;;9.80;;
33830;SDS011;20137;48.834;8.732;2023-02-28T06:31:15;17.88;;;10.50;;
33830;SDS011;20137;48.834;8.732;2023-02-28T06:33:42;16.45;;;9.88;;
33830;SDS011;20137;48.834;8.732;2023-02-28T06:36:08;17.52;;;9.80;;
33830;SDS011;20137;48.834;8.732;2023-02-28T06:38:35;23.25;;;11.75;;
33830;SDS011;20137;48.834;8.732;2023-02-28T06:41:01;17.63;;;10.35;;
33830;SDS011;20137;48.834;8.732;2023-02-28T06:43:29;20.25;;;10.38;;
33830;SDS011;20137;48.834;8.732;2023-02-28T06:45:57;18.95;;;10.55;;
33830;SDS011;20137;48.834;8.732;2023-02-28T06:48:25;17.60;;;9.73;;
33830;SDS011;20137;48.834;8.732;2023-02-28T06:50:52;19.90;;;10.27;;
33830;SDS011;20137;48.834;8.732;2023-02-28T06:53:25;18.33;;;10.75;;
33830;SDS011;20137;48.834;8.732;2023-02-28T06:55:51;18.83;;;9.88;;
33830;SDS011;20137;48.834;8.732;2023-02-28T06:58:17;14.82;;;8.90;;
33830;SDS011;20137;48.834;8.732;2023-02-28T07:00:44;18.13;;;10.25;;
33830;SDS011;20137;48.834;8.732;2023-02-28T07:03:12;16.00;;;9.57;;
33830;SDS011;20137;48.834;8.732;2023-02-28T07:05:39;17.60;;;10.40;;
33830;SDS011;20137;48.834;8.732;2023-02-28T07:08:05;17.45;;;9.57;;
33830;SDS011;20137;48.834;8.732;2023-02-28T07:10:32;19.58;;;10.30;;
33830;SDS011;20137;48.834;8.732;2023-02-28T07:12:59;17.85;;;10.10;;
33830;SDS011;20137;48.834;8.732;2023-02-28T07:15:25;21.55;;;9.30;;
33830;SDS011;20137;48.834;8.732;2023-02-28T07:17:50;15.63;;;9.00;;
33830;SDS011;20137;48.834;8.732;2023-02-28T07:20:16;18.70;;;10.45;;
33830;SDS011;20137;48.834;8.732;2023-02-28T07:22:42;27.40;;;11.40;;
33830;SDS011;20137;48.834;8.732;2023-02-28T07:25:08;26.88;;;12.75;;
33830;SDS011;20137;48.834;8.732;2023-02-28T07:27:34;39.80;;;15.23;;
33830;SDS011;20137;48.834;8.732;2023-02-28T07:30:00;33.63;;;14.55;;
33830;SDS011;20137;48.834;8.732;2023-02-28T07:32:28;19.40;;;9.82;;
33830;SDS011;20137;48.834;8.732;2023-02-28T07:34:54;19.02;;;9.43;;
33830;SDS011;20137;48.834;8.732;2023-02-28T07:37:20;15.98;;;9.15;;
33830;SDS011;20137;48.834;8.732;2023-02-28T07:39:45;18.10;;;9.65;;
33830;SDS011;20137;48.834;8.732;2023-02-28T07:42:11;19.30;;;9.45;;
33830;SDS011;20137;48.834;8.732;2023-02-28T07:44:40;19.85;;;9.85;;
33830;SDS011;20137;48.834;8.732;2023-02-28T07:47:10;17.63;;;9.38;;
33830;SDS011;20137;48.834;8.732;2023-02-28T07:49:36;20.80;;;10.18;;
33830;SDS011;20137;48.834;8.732;2023-02-28T07:52:03;15.70;;;9.10;;
33830;SDS011;20137;48.834;8.732;2023-02-28T07:54:29;17.23;;;9.32;;
33830;SDS011;20137;48.834;8.732;2023-02-28T07:56:55;16.27;;;9.38;;
33830;SDS011;20137;48.834;8.732;2023-02-28T07:59:21;16.30;;;9.27;;
33830;SDS011;20137;48.834;8.732;2023-02-28T08:01:46;21.38;;;10.57;;
33830;SDS011;20137;48.834;8.732;2023-02-28T08:04:15;18.15;;;10.27;;
33830;SDS011;20137;48.834;8.732;2023-02-28T08:06:43;19.88;;;9.50;;
33830;SDS011;20137;48.834;8.732;2023-02-28T08:09:09;18.05;;;9.45;;
33830;SDS011;20137;48.834;8.732;2023-02-28T08:11:35;19.17;;;9.60;;
33830;SDS011;20137;48.834;8.732;2023-02-28T08:14:01;19.45;;;9.50;;
33830;SDS011;20137;48.834;8.732;2023-02-28T08:16:27;20.48;;;10.82;;
33830;SDS011;20137;48.834;8.732;2023-02-28T08:18:53;18.73;;;10.38;;
33830;SDS011;20137;48.834;8.732;2023-02-28T08:21:19;17.00;;;9.60;;
33830;SDS011;20137;48.834;8.732;2023-02-28T08:23:48;24.15;;;11.25;;
33830;SDS011;20137;48.834;8.732;2023-02-28T08:26:15;18.10;;;9.50;;
33830;SDS011;20137;48.834;8.732;2023-02-28T08:28:42;17.67;;;9.90;;
33830;SDS011;20137;48.834;8.732;2023-02-28T08:31:10;19.98;;;10.32;;
33830;SDS011;20137;48.834;8.732;2023-02-28T08:33:37;20.35;;;10.65;;
33830;SDS011;20137;48.834;8.732;2023-02-28T08:36:04;17.38;;;10.52;;
33830;SDS011;20137;48.834;8.732;2023-02-28T08:38:30;19.77;;;10.20;;
33830;SDS011;20137;48.834;8.732;2023-02-28T08:41:00;19.00;;;9.93;;
33830;SDS011;20137;48.834;8.732;2023-02-28T08:43:27;21.50;;;10.57;;
33830;SDS011;20137;48.834;8.732;2023-02-28T08:45:56;19.33;;;10.20;;
33830;SDS011;20137;48.834;8.732;2023-02-28T08:48:23;16.63;;;9.68;;
33830;SDS011;20137;48.834;8.732;2023-02-28T08:53:43;20.13;;;10.38;;
33830;SDS011;20137;48.834;8.732;2023-02-28T08:56:14;22.67;;;11.30;;
33830;SDS011;20137;48.834;8.732;2023-02-28T08:58:41;18.10;;;11.43;;
33830;SDS011;20137;48.834;8.732;2023-02-28T09:01:17;19.95;;;10.88;;
33830;SDS011;20137;48.834;8.732;2023-02-28T09:03:44;19.92;;;11.10;;
33830;SDS011;20137;48.834;8.732;2023-02-28T09:06:11;18.63;;;10.68;;
33830;SDS011;20137;48.834;8.732;2023-02-28T09:08:39;18.40;;;9.93;;
33830;SDS011;20137;48.834;8.732;2023-02-28T09:11:05;18.20;;;11.07;;
33830;SDS011;20137;48.834;8.732;2023-02-28T09:13:32;21.42;;;10.65;;
33830;SDS011;20137;48.834;8.732;2023-02-28T09:15:59;19.95;;;10.75;;
33830;SDS011;20137;48.834;8.732;2023-02-28T09:18:25;20.35;;;10.88;;
33830;SDS011;20137;48.834;8.732;2023-02-28T09:20:51;22.00;;;11.40;;
33830;SDS011;20137;48.834;8.732;2023-02-28T09:23:17;22.55;;;11.10;;
33830;SDS011;20137;48.834;8.732;2023-02-28T09:25:50;18.35;;;10.63;;
33830;SDS011;20137;48.834;8.732;2023-02-28T09:28:18;19.30;;;10.77;;
33830;SDS011;20137;48.834;8.732;2023-02-28T09:30:45;20.15;;;10.38;;
33830;SDS011;20137;48.834;8.732;2023-02-28T09:33:14;19.83;;;11.00;;
33830;SDS011;20137;48.834;8.732;2023-02-28T09:35:40;25.05;;;12.32;;
33830;SDS011;20137;48.834;8.732;2023-02-28T09:38:08;28.02;;;12.68;;
33830;SDS011;20137;48.834;8.732;2023-02-28T09:40:36;20.75;;;11.48;;
33830;SDS011;20137;48.834;8.732;2023-02-28T09:43:09;22.17;;;12.15;;
33830;SDS011;20137;48.834;8.732;2023-02-28T09:45:39;24.15;;;11.95;;
33830;SDS011;20137;48.834;8.732;2023-02-28T09:48:14;22.60;;;11.82;;
33830;SDS011;20137;48.834;8.732;2023-02-28T09:50:48;21.88;;;11.02;;
33830;SDS011;20137;48.834;8.732;2023-02-28T09:53:26;22.63;;;11.77;;
33830;SDS011;20137;48.834;8.732;2023-02-28T09:55:59;21.15;;;11.63;;
33830;SDS011;20137;48.834;8.732;2023-02-28T09:58:56;24.52;;;12.05;;
33830;SDS011;20137;48.834;8.732;2023-02-28T10:04:00;19.83;;;12.05;;
33830;SDS011;20137;48.834;8.732;2023-02-28T10:06:30;22.55;;;11.38;;
33830;SDS011;20137;48.834;8.732;2023-02-28T10:09:06;22.67;;;11.18;;
33830;SDS011;20137;48.834;8.732;2023-02-28T10:11:38;22.85;;;12.27;;
33830;SDS011;20137;48.834;8.732;2023-02-28T10:14:16;22.35;;;11.52;;
33830;SDS011;20137;48.834;8.732;2023-02-28T10:16:48;21.83;;;11.52;;
33830;SDS011;20137;48.834;8.732;2023-02-28T10:20:02;26.65;;;11.38;;
33830;SDS011;20137;48.834;8.732;2023-02-28T10:25:20;22.55;;;11.48;;
33830;SDS011;20137;48.834;8.732;2023-02-28T10:27:49;24.73;;;11.65;;
33830;SDS011;20137;48.834;8.732;2023-02-28T10:30:18;23.35;;;12.65;;
33830;SDS011;20137;48.834;8.732;2023-02-28T10:32:49;25.48;;;13.02;;
33830;SDS011;20137;48.834;8.732;2023-02-28T10:37:47;24.05;;;11.40;;
33830;SDS011;20137;48.834;8.732;2023-02-28T10:43:45;23.45;;;12.45;;
33830;SDS011;20137;48.834;8.732;2023-02-28T10:45:51;22.27;;;11.65;;
33830;SDS011;20137;48.834;8.732;2023-02-28T10:48:29;21.58;;;11.52;;
33830;SDS011;20137;48.834;8.732;2023-02-28T10:50:57;23.05;;;12.07;;
33830;SDS011;20137;48.834;8.732;2023-02-28T10:58:49;24.33;;;12.02;;
33830;SDS011;20137;48.834;8.732;2023-02-28T11:03:55;22.20;;;11.70;;
33830;SDS011;20137;48.834;8.732;2023-02-28T11:06:23;19.50;;;11.63;;
33830;SDS011;20137;48.834;8.732;2023-02-28T11:11:25;20.00;;;12.25;;
33830;SDS011;20137;48.834;8.732;2023-02-28T11:13:54;31.98;;;14.38;;
33830;SDS011;20137;48.834;8.732;2023-02-28T11:16:31;23.42;;;13.25;;
33830;SDS011;20137;48.834;8.732;2023-02-28T11:18:59;25.20;;;14.73;;
33830;SDS011;20137;48.834;8.732;2023-02-28T11:21:28;20.60;;;12.38;;
33830;SDS011;20137;48.834;8.732;2023-02-28T11:24:44;28.40;;;13.13;;
33830;SDS011;20137;48.834;8.732;2023-02-28T11:26:48;20.33;;;11.48;;
33830;SDS011;20137;48.834;8.732;2023-02-28T11:29:27;17.30;;;11.70;;
33830;SDS011;20137;48.834;8.732;2023-02-28T11:32:01;21.85;;;12.55;;
33830;SDS011;20137;48.834;8.732;2023-02-28T11:34:30;23.15;;;12.75;;
33830;SDS011;20137;48.834;8.732;2023-02-28T11:36:58;21.23;;;12.40;;
33830;SDS011;20137;48.834;8.732;2023-02-28T11:39:25;24.38;;;13.07;;
33830;SDS011;20137;48.834;8.732;2023-02-28T11:42:04;19.05;;;11.57;;
33830;SDS011;20137;48.834;8.732;2023-02-28T11:44:59;22.50;;;11.68;;
33830;SDS011;20137;48.834;8.732;2023-02-28T11:47:38;25.73;;;12.88;;
33830;SDS011;20137;48.834;8.732;2023-02-28T11:56:16;20.45;;;11.35;;
33830;SDS011;20137;48.834;8.732;2023-02-28T11:59:14;24.90;;;14.00;;
33830;SDS011;20137;48.834;8.732;2023-02-28T12:12:30;20.58;;;12.70;;
33830;SDS011;20137;48.834;8.732;2023-02-28T12:20:36;19.55;;;11.00;;
33830;SDS011;20137;48.834;8.732;2023-02-28T12:28:34;19.15;;;12.68;;
33830;SDS011;20137;48.834;8.732;2023-02-28T12:31:27;21.90;;;12.32;;
33830;SDS011;20137;48.834;8.732;2023-02-28T12:33:56;25.38;;;11.98;;
33830;SDS011;20137;48.834;8.732;2023-02-28T12:36:28;20.83;;;11.82;;
33830;SDS011;20137;48.834;8.732;2023-02-28T12:39:17;23.92;;;12.45;;
33830;SDS011;20137;48.834;8.732;2023-02-28T12:44:35;18.70;;;12.13;;
33830;SDS011;20137;48.834;8.732;2023-02-28T12:47:09;18.40;;;11.48;;
33830;SDS011;20137;48.834;8.732;2023-02-28T12:49:52;22.55;;;12.30;;
33830;SDS011;20137;48.834;8.732;2023-02-28T12:52:31;20.25;;;12.38;;
33830;SDS011;20137;48.834;8.732;2023-02-28T12:57:48;17.00;;;11.40;;
33830;SDS011;20137;48.834;8.732;2023-02-28T13:00:24;21.42;;;11.63;;
33830;SDS011;20137;48.834;8.732;2023-02-28T13:05:59;19.52;;;11.88;;
33830;SDS011;20137;48.834;8.732;2023-02-28T13:11:27;21.05;;;12.32;;
33830;SDS011;20137;48.834;8.732;2023-02-28T13:14:02;20.35;;;12.13;;
33830;SDS011;20137;48.834;8.732;2023-02-28T13:19:22;26.27;;;13.13;;
33830;SDS011;20137;48.834;8.732;2023-02-28T13:21:51;21.50;;;11.38;;
33830;SDS011;20137;48.834;8.732;2023-02-28T13:24:37;20.27;;;11.88;;
33830;SDS011;20137;48.834;8.732;2023-02-28T13:29:38;23.83;;;15.40;;
33830;SDS011;20137;48.834;8.732;2023-02-28T13:34:42;32.28;;;15.55;;
33830;SDS011;20137;48.834;8.732;2023-02-28T13:39:53;27.35;;;13.63;;
33830;SDS011;20137;48.834;8.732;2023-02-28T13:47:39;22.17;;;11.82;;
33830;SDS011;20137;48.834;8.732;2023-02-28T13:50:21;18.65;;;11.30;;
33830;SDS011;20137;48.834;8.732;2023-02-28T13:55:49;20.67;;;11.63;;
33830;SDS011;20137;48.834;8.732;2023-02-28T13:58:43;17.35;;;11.13;;
33830;SDS011;20137;48.834;8.732;2023-02-28T14:06:54;17.95;;;11.07;;
33830;SDS011;20137;48.834;8.732;2023-02-28T14:09:34;20.00;;;12.00;;
33830;SDS011;20137;48.834;8.732;2023-02-28T14:15:46;18.48;;;10.80;;
33830;SDS011;20137;48.834;8.732;2023-02-28T14:21:14;25.30;;;11.45;;
33830;SDS011;20137;48.834;8.732;2023-02-28T14:29:43;16.95;;;11.20;;
33830;SDS011;20137;48.834;8.732;2023-02-28T14:34:52;18.97;;;11.07;;
33830;SDS011;20137;48.834;8.732;2023-02-28T14:37:58;19.73;;;10.98;;
33830;SDS011;20137;48.834;8.732;2023-02-28T14:40:30;16.70;;;12.20;;
33830;SDS011;20137;48.834;8.732;2023-02-28T14:43:02;17.73;;;11.05;;
33830;SDS011;20137;48.834;8.732;2023-02-28T14:45:31;16.83;;;11.30;;
33830;SDS011;20137;48.834;8.732;2023-02-28T14:47:59;21.65;;;11.88;;
33830;SDS011;20137;48.834;8.732;2023-02-28T14:50:27;20.70;;;11.70;;
33830;SDS011;20137;48.834;8.732;2023-02-28T14:52:56;20.27;;;11.95;;
33830;SDS011;20137;48.834;8.732;2023-02-28T14:55:34;17.23;;;11.20;;
33830;SDS011;20137;48.834;8.732;2023-02-28T14:58:01;23.45;;;12.88;;
33830;SDS011;20137;48.834;8.732;2023-02-28T15:00:35;18.13;;;12.35;;
33830;SDS011;20137;48.834;8.732;2023-02-28T15:03:33;21.52;;;12.43;;
33830;SDS011;20137;48.834;8.732;2023-02-28T15:05:59;22.55;;;12.50;;
33830;SDS011;20137;48.834;8.732;2023-02-28T15:08:27;18.73;;;11.00;;
33830;SDS011;20137;48.834;8.732;2023-02-28T15:13:36;22.42;;;11.70;;
33830;SDS011;20137;48.834;8.732;2023-02-28T15:18:56;19.27;;;12.20;;
33830;SDS011;20137;48.834;8.732;2023-02-28T15:21:31;20.55;;;12.35;;
33830;SDS011;20137;48.834;8.732;2023-02-28T15:24:02;20.30;;;12.00;;
33830;SDS011;20137;48.834;8.732;2023-02-28T15:26:37;24.13;;;12.35;;
33830;SDS011;20137;48.834;8.732;2023-02-28T15:29:06;22.38;;;12.32;;
33830;SDS011;20137;48.834;8.732;2023-02-28T15:31:39;23.10;;;12.75;;
33830;SDS011;20137;48.834;8.732;2023-02-28T15:34:18;23.30;;;12.52;;
33830;SDS011;20137;48.834;8.732;2023-02-28T15:36:46;22.85;;;12.63;;
33830;SDS011;20137;48.834;8.732;2023-02-28T15:39:46;18.65;;;12.15;;
33830;SDS011;20137;48.834;8.732;2023-02-28T15:42:12;21.13;;;12.38;;
33830;SDS011;20137;48.834;8.732;2023-02-28T15:44:42;21.15;;;13.50;;
33830;SDS011;20137;48.834;8.732;2023-02-28T15:47:16;21.00;;;11.55;;
33830;SDS011;20137;48.834;8.732;2023-02-28T15:49:49;21.88;;;12.18;;
33830;SDS011;20137;48.834;8.732;2023-02-28T15:52:55;20.15;;;12.63;;
33830;SDS011;20137;48.834;8.732;2023-02-28T15:58:08;23.52;;;13.07;;
33830;SDS011;20137;48.834;8.732;2023-02-28T16:00:37;24.15;;;14.23;;
33830;SDS011;20137;48.834;8.732;2023-02-28T16:03:23;23.33;;;12.95;;
33830;SDS011;20137;48.834;8.732;2023-02-28T16:06:09;22.73;;;13.32;;
33830;SDS011;20137;48.834;8.732;2023-02-28T16:08:51;22.75;;;12.82;;
33830;SDS011;20137;48.834;8.732;2023-02-28T16:11:18;18.63;;;12.70;;
33830;SDS011;20137;48.834;8.732;2023-02-28T16:13:45;23.58;;;13.77;;
33830;SDS011;20137;48.834;8.732;2023-02-28T16:16:18;24.58;;;12.98;;
33830;SDS011;20137;48.834;8.732;2023-02-28T16:18:47;22.60;;;12.80;;
33830;SDS011;20137;48.834;8.732;2023-02-28T16:21:13;25.02;;;13.00;;
33830;SDS011;20137;48.834;8.732;2023-02-28T16:23:39;22.08;;;12.70;;
33830;SDS011;20137;48.834;8.732;2023-02-28T16:28:50;23.20;;;12.98;;
33830;SDS011;20137;48.834;8.732;2023-02-28T16:31:17;21.10;;;12.40;;
33830;SDS011;20137;48.834;8.732;2023-02-28T16:33:43;23.85;;;13.02;;
33830;SDS011;20137;48.834;8.732;2023-02-28T16:36:12;23.52;;;12.73;;
33830;SDS011;20137;48.834;8.732;2023-02-28T16:38:39;20.75;;;12.25;;
33830;SDS011;20137;48.834;8.732;2023-02-28T16:41:12;26.35;;;13.15;;
33830;SDS011;20137;48.834;8.732;2023-02-28T16:43:44;24.90;;;13.20;;
33830;SDS011;20137;48.834;8.732;2023-02-28T16:46:12;20.58;;;12.82;;
33830;SDS011;20137;48.834;8.732;2023-02-28T16:48:38;21.77;;;12.98;;
33830;SDS011;20137;48.834;8.732;2023-02-28T16:51:05;23.15;;;12.80;;
33830;SDS011;20137;48.834;8.732;2023-02-28T16:53:36;30.15;;;13.77;;
33830;SDS011;20137;48.834;8.732;2023-02-28T16:56:01;25.02;;;12.88;;
33830;SDS011;20137;48.834;8.732;2023-02-28T16:58:27;23.13;;;12.35;;
33830;SDS011;20137;48.834;8.732;2023-02-28T17:00:53;21.35;;;13.00;;
33830;SDS011;20137;48.834;8.732;2023-02-28T17:08:31;29.90;;;14.50;;
33830;SDS011;20137;48.834;8.732;2023-02-28T17:10:58;24.30;;;14.20;;
33830;SDS011;20137;48.834;8.732;2023-02-28T17:13:24;24.50;;;14.48;;
33830;SDS011;20137;48.834;8.732;2023-02-28T17:15:50;23.23;;;14.05;;
33830;SDS011;20137;48.834;8.732;2023-02-28T17:18:16;24.98;;;14.48;;